Portada
METAR-TAF:

METAR-TAF

Aeroports :

Najaf, Iraq

latitud: 31-59-23N, longitud: 44-24-15E, altitud: 31 m

Observació

L'informe es va fer fa 1 hora i 6 minuts, a les 06:00 UTC
Vent 10 kt del Nord-Oest
Temperatura 31°C
Humitat 22%
Pressió 1010 hPa
Visibilitat 10 km o més
sense núvols per sota de 1500 mi sense presència de cumulonimbus.

METAR: ORNI 080600Z 31010KT CAVOK 31/07 Q1010 NOSIG

Hora: 10:06 (07:06 UTC)

Pronòstic

L'informe es va fer fa 3 hores i 6 minuts, a les 04:00 UTC
Pronòstic vàlid del 08 a les 06 UTC al 09 a les 06 UTC
Vent 10 kt del Nord/Nord-Oest
Visibilitat: 8000 m

TAF: ORNI 080400Z 0806/0906 33010KT 8000 NSC

Observacions i pronòstics meteorològics de més de 4000 aeroports (METAR i TAF).

Les estacions disponibles són els punts grocs i vermells al mapa.

Posi el ratolí al punt desitjat per veure el nom de l'estació.

Feu clic per veure les observacions i els pronòstics meteorològics.

Per canviar el mapa: feu clic els botons verds amb una creu de color negre per apropar; al botó verd amb un guió per allunyar la imatge; o en les fletxes verdes per a mapes adjacents.


METAR-TAF: